sensor_id;sensor_type;location;lat;lon;timestamp;pressure;altitude;pressure_sealevel;temperature;humidity
54262;BME280;40174;52.364;6.452;2022-10-15T00:02:00;100488.25;;;10.80;100.00
54262;BME280;40174;52.364;6.452;2022-10-15T00:04:26;100487.69;;;10.77;100.00
54262;BME280;40174;52.364;6.452;2022-10-15T00:06:55;100491.44;;;10.74;100.00
54262;BME280;40174;52.364;6.452;2022-10-15T00:09:23;100498.41;;;10.75;100.00
54262;BME280;40174;52.364;6.452;2022-10-15T00:11:49;100491.13;;;10.68;100.00
54262;BME280;40174;52.364;6.452;2022-10-15T00:14:16;100493.31;;;10.63;100.00
54262;BME280;40174;52.364;6.452;2022-10-15T00:16:43;100496.63;;;10.55;100.00
54262;BME280;40174;52.364;6.452;2022-10-15T00:19:10;100486.88;;;10.55;100.00
54262;BME280;40174;52.364;6.452;2022-10-15T00:21:37;100483.41;;;10.55;100.00
54262;BME280;40174;52.364;6.452;2022-10-15T00:24:04;100482.59;;;10.54;100.00
54262;BME280;40174;52.364;6.452;2022-10-15T00:26:32;100486.19;;;10.53;100.00
54262;BME280;40174;52.364;6.452;2022-10-15T00:29:01;100481.88;;;10.52;100.00
54262;BME280;40174;52.364;6.452;2022-10-15T00:31:30;100481.28;;;10.49;100.00
54262;BME280;40174;52.364;6.452;2022-10-15T00:33:58;100485.03;;;10.46;100.00
54262;BME280;40174;52.364;6.452;2022-10-15T00:36:27;100480.03;;;10.43;100.00
54262;BME280;40174;52.364;6.452;2022-10-15T00:38:54;100480.94;;;10.32;100.00
54262;BME280;40174;52.364;6.452;2022-10-15T00:41:25;100473.63;;;10.25;100.00
54262;BME280;40174;52.364;6.452;2022-10-15T00:43:56;100477.88;;;10.16;100.00
54262;BME280;40174;52.364;6.452;2022-10-15T00:46:24;100478.28;;;10.11;100.00
54262;BME280;40174;52.364;6.452;2022-10-15T00:48:55;100470.59;;;10.08;100.00
54262;BME280;40174;52.364;6.452;2022-10-15T00:51:27;100473.94;;;10.10;100.00
54262;BME280;40174;52.364;6.452;2022-10-15T00:53:57;100480.75;;;10.13;100.00
54262;BME280;40174;52.364;6.452;2022-10-15T00:56:24;100473.81;;;10.12;100.00
54262;BME280;40174;52.364;6.452;2022-10-15T00:58:54;100470.47;;;10.10;100.00
54262;BME280;40174;52.364;6.452;2022-10-15T01:01:22;100467.22;;;10.06;100.00
54262;BME280;40174;52.364;6.452;2022-10-15T01:03:50;100465.97;;;10.01;100.00
54262;BME280;40174;52.364;6.452;2022-10-15T01:06:16;100470.19;;;9.92;100.00
54262;BME280;40174;52.364;6.452;2022-10-15T01:08:44;100466.41;;;9.85;100.00
54262;BME280;40174;52.364;6.452;2022-10-15T01:11:23;100465.81;;;9.81;100.00
54262;BME280;40174;52.364;6.452;2022-10-15T01:14:00;100472.19;;;9.78;100.00
54262;BME280;40174;52.364;6.452;2022-10-15T01:16:34;100465.03;;;9.69;100.00
54262;BME280;40174;52.364;6.452;2022-10-15T01:19:06;100473.31;;;9.65;100.00
54262;BME280;40174;52.364;6.452;2022-10-15T01:21:43;100463.25;;;9.58;100.00
54262;BME280;40174;52.364;6.452;2022-10-15T01:24:41;100469.75;;;9.54;100.00
54262;BME280;40174;52.364;6.452;2022-10-15T01:27:18;100468.31;;;9.50;100.00
54262;BME280;40174;52.364;6.452;2022-10-15T01:33:02;100458.53;;;9.41;100.00
54262;BME280;40174;52.364;6.452;2022-10-15T01:35:36;100459.72;;;9.37;100.00
54262;BME280;40174;52.364;6.452;2022-10-15T01:38:19;100459.72;;;9.37;100.00
54262;BME280;40174;52.364;6.452;2022-10-15T01:40:52;100449.44;;;9.34;100.00
54262;BME280;40174;52.364;6.452;2022-10-15T01:43:25;100448.59;;;9.33;100.00
54262;BME280;40174;52.364;6.452;2022-10-15T01:46:23;100452.53;;;9.39;100.00
54262;BME280;40174;52.364;6.452;2022-10-15T01:49:04;100452.28;;;9.42;100.00
54262;BME280;40174;52.364;6.452;2022-10-15T01:51:34;100462.47;;;9.47;100.00
54262;BME280;40174;52.364;6.452;2022-10-15T01:54:04;100457.06;;;9.48;100.00
54262;BME280;40174;52.364;6.452;2022-10-15T01:56:33;100455.13;;;9.50;100.00
54262;BME280;40174;52.364;6.452;2022-10-15T01:59:03;100446.25;;;9.51;100.00
54262;BME280;40174;52.364;6.452;2022-10-15T02:01:30;100439.06;;;9.53;100.00
54262;BME280;40174;52.364;6.452;2022-10-15T02:03:57;100439.78;;;9.55;100.00
54262;BME280;40174;52.364;6.452;2022-10-15T02:06:30;100437.97;;;9.56;100.00
54262;BME280;40174;52.364;6.452;2022-10-15T02:09:11;100434.34;;;9.57;100.00
54262;BME280;40174;52.364;6.452;2022-10-15T02:11:49;100432.59;;;9.57;100.00
54262;BME280;40174;52.364;6.452;2022-10-15T02:14:17;100430.78;;;9.58;100.00
54262;BME280;40174;52.364;6.452;2022-10-15T02:16:55;100428.13;;;9.58;100.00
54262;BME280;40174;52.364;6.452;2022-10-15T02:19:29;100424.41;;;9.61;100.00
54262;BME280;40174;52.364;6.452;2022-10-15T02:22:05;100429.09;;;9.57;100.00
54262;BME280;40174;52.364;6.452;2022-10-15T02:24:36;100419.78;;;9.53;100.00
54262;BME280;40174;52.364;6.452;2022-10-15T02:27:06;100426.81;;;9.52;100.00
54262;BME280;40174;52.364;6.452;2022-10-15T02:29:36;100421.53;;;9.52;100.00
54262;BME280;40174;52.364;6.452;2022-10-15T02:32:05;100422.53;;;9.51;100.00
54262;BME280;40174;52.364;6.452;2022-10-15T02:34:33;100425.16;;;9.51;100.00
54262;BME280;40174;52.364;6.452;2022-10-15T02:37:03;100422.53;;;9.51;100.00
54262;BME280;40174;52.364;6.452;2022-10-15T02:39:32;100415.44;;;9.52;100.00
54262;BME280;40174;52.364;6.452;2022-10-15T02:42:00;100417.97;;;9.53;100.00
54262;BME280;40174;52.364;6.452;2022-10-15T02:44:26;100414.34;;;9.54;100.00
54262;BME280;40174;52.364;6.452;2022-10-15T02:46:54;100409.06;;;9.54;100.00
54262;BME280;40174;52.364;6.452;2022-10-15T02:49:21;100405.59;;;9.54;100.00
54262;BME280;40174;52.364;6.452;2022-10-15T02:51:49;100411.72;;;9.54;100.00
54262;BME280;40174;52.364;6.452;2022-10-15T02:54:17;100401.16;;;9.54;100.00
54262;BME280;40174;52.364;6.452;2022-10-15T02:56:46;100409.91;;;9.55;100.00
54262;BME280;40174;52.364;6.452;2022-10-15T02:59:13;100405.47;;;9.55;100.00
54262;BME280;40174;52.364;6.452;2022-10-15T03:01:40;100404.78;;;9.53;100.00
54262;BME280;40174;52.364;6.452;2022-10-15T03:04:08;100406.69;;;9.51;100.00
54262;BME280;40174;52.364;6.452;2022-10-15T03:06:35;100405.16;;;9.49;100.00
54262;BME280;40174;52.364;6.452;2022-10-15T03:09:02;100402.50;;;9.49;100.00
54262;BME280;40174;52.364;6.452;2022-10-15T03:11:31;100403.72;;;9.45;100.00
54262;BME280;40174;52.364;6.452;2022-10-15T03:13:58;100405.53;;;9.44;100.00
54262;BME280;40174;52.364;6.452;2022-10-15T03:16:24;100405.53;;;9.44;100.00
54262;BME280;40174;52.364;6.452;2022-10-15T03:18:51;100402.63;;;9.47;100.00
54262;BME280;40174;52.364;6.452;2022-10-15T03:21:18;100402.50;;;9.49;100.00
54262;BME280;40174;52.364;6.452;2022-10-15T03:23:45;100406.69;;;9.51;100.00
54262;BME280;40174;52.364;6.452;2022-10-15T03:26:17;100406.56;;;9.53;100.00
54262;BME280;40174;52.364;6.452;2022-10-15T03:28:44;100409.06;;;9.54;100.00
54262;BME280;40174;52.364;6.452;2022-10-15T03:31:19;100407.25;;;9.55;100.00
54262;BME280;40174;52.364;6.452;2022-10-15T03:33:47;100403.56;;;9.57;100.00
54262;BME280;40174;52.364;6.452;2022-10-15T03:36:18;100406.91;;;9.60;100.00
54262;BME280;40174;52.364;6.452;2022-10-15T03:38:46;100393.56;;;9.61;100.00
54262;BME280;40174;52.364;6.452;2022-10-15T03:41:12;100396.91;;;9.63;100.00
54262;BME280;40174;52.364;6.452;2022-10-15T03:43:40;100390.69;;;9.64;100.00
54262;BME280;40174;52.364;6.452;2022-10-15T03:46:09;100401.94;;;9.66;100.00
54262;BME280;40174;52.364;6.452;2022-10-15T03:48:39;100387.78;;;9.67;100.00
54262;BME280;40174;52.364;6.452;2022-10-15T03:51:07;100386.69;;;9.70;100.00
54262;BME280;40174;52.364;6.452;2022-10-15T03:53:34;100375.31;;;9.69;100.00
54262;BME280;40174;52.364;6.452;2022-10-15T03:56:05;100376.97;;;9.70;100.00
54262;BME280;40174;52.364;6.452;2022-10-15T03:58:35;100381.41;;;9.70;100.00
54262;BME280;40174;52.364;6.452;2022-10-15T04:01:08;100375.41;;;9.68;100.00
54262;BME280;40174;52.364;6.452;2022-10-15T04:03:36;100374.47;;;9.69;100.00
54262;BME280;40174;52.364;6.452;2022-10-15T04:06:03;100370.97;;;9.68;100.00
54262;BME280;40174;52.364;6.452;2022-10-15T04:08:30;100381.53;;;9.68;100.00
54262;BME280;40174;52.364;6.452;2022-10-15T04:10:57;100371.13;;;9.67;100.00
54262;BME280;40174;52.364;6.452;2022-10-15T04:13:25;100373.06;;;9.65;100.00
54262;BME280;40174;52.364;6.452;2022-10-15T04:15:52;100365.38;;;9.62;100.00
54262;BME280;40174;52.364;6.452;2022-10-15T04:18:21;100361.19;;;9.59;100.00
54262;BME280;40174;52.364;6.452;2022-10-15T04:20:52;100362.16;;;9.58;100.00
54262;BME280;40174;52.364;6.452;2022-10-15T04:23:21;100363.13;;;9.57;100.00
54262;BME280;40174;52.364;6.452;2022-10-15T04:26:14;100363.50;;;9.52;100.00
54262;BME280;40174;52.364;6.452;2022-10-15T04:28:41;100365.44;;;9.50;100.00
54262;BME280;40174;52.364;6.452;2022-10-15T04:31:08;100372.50;;;9.50;100.00
54262;BME280;40174;52.364;6.452;2022-10-15T04:33:36;100363.88;;;9.48;100.00
54262;BME280;40174;52.364;6.452;2022-10-15T04:36:04;100364.88;;;9.47;100.00
54262;BME280;40174;52.364;6.452;2022-10-15T04:38:46;100375.66;;;9.44;100.00
54262;BME280;40174;52.364;6.452;2022-10-15T04:41:19;100372.19;;;9.43;100.00
54262;BME280;40174;52.364;6.452;2022-10-15T04:44:06;100376.63;;;9.43;100.00
54262;BME280;40174;52.364;6.452;2022-10-15T04:46:33;100375.09;;;9.40;100.00
54262;BME280;40174;52.364;6.452;2022-10-15T04:49:09;100372.44;;;9.40;100.00
54262;BME280;40174;52.364;6.452;2022-10-15T04:51:38;100378.81;;;9.38;100.00
54262;BME280;40174;52.364;6.452;2022-10-15T04:54:11;100375.31;;;9.37;100.00
54262;BME280;40174;52.364;6.452;2022-10-15T04:56:53;100381.47;;;9.38;100.00
54262;BME280;40174;52.364;6.452;2022-10-15T04:59:20;100378.81;;;9.38;100.00
54262;BME280;40174;52.364;6.452;2022-10-15T05:02:09;100381.56;;;9.36;100.00
54262;BME280;40174;52.364;6.452;2022-10-15T05:04:38;100381.31;;;9.39;100.00
54262;BME280;40174;52.364;6.452;2022-10-15T05:07:05;100376.03;;;9.39;100.00
54262;BME280;40174;52.364;6.452;2022-10-15T05:09:31;100380.38;;;9.40;100.00
54262;BME280;40174;52.364;6.452;2022-10-15T05:11:58;100385.53;;;9.42;100.00
54262;BME280;40174;52.364;6.452;2022-10-15T05:14:26;100379.28;;;9.43;100.00
54262;BME280;40174;52.364;6.452;2022-10-15T05:17:07;100378.88;;;9.47;100.00
54262;BME280;40174;52.364;6.452;2022-10-15T05:19:40;100377.06;;;9.48;100.00
54262;BME280;40174;52.364;6.452;2022-10-15T05:22:13;100380.44;;;9.50;100.00
54262;BME280;40174;52.364;6.452;2022-10-15T05:24:46;100386.31;;;9.53;100.00
54262;BME280;40174;52.364;6.452;2022-10-15T05:27:24;100384.38;;;9.55;100.00
54262;BME280;40174;52.364;6.452;2022-10-15T05:29:50;100371.03;;;9.57;100.00
54262;BME280;40174;52.364;6.452;2022-10-15T05:32:17;100375.38;;;9.58;100.00
54262;BME280;40174;52.364;6.452;2022-10-15T05:34:45;100377.03;;;9.59;100.00
54262;BME280;40174;52.364;6.452;2022-10-15T05:37:14;100382.78;;;9.64;100.00
54262;BME280;40174;52.364;6.452;2022-10-15T05:39:41;100392.25;;;9.67;100.00
54262;BME280;40174;52.364;6.452;2022-10-15T05:42:09;100385.03;;;9.69;100.00
54262;BME280;40174;52.364;6.452;2022-10-15T05:44:50;100387.53;;;9.70;100.00
54262;BME280;40174;52.364;6.452;2022-10-15T05:47:16;100397.69;;;9.75;100.00
54262;BME280;40174;52.364;6.452;2022-10-15T05:49:44;100394.81;;;9.78;100.00
54262;BME280;40174;52.364;6.452;2022-10-15T05:52:21;100392.03;;;9.79;100.00
54262;BME280;40174;52.364;6.452;2022-10-15T05:55:07;100382.44;;;9.78;100.00
54262;BME280;40174;52.364;6.452;2022-10-15T05:57:34;100385.91;;;9.79;100.00
54262;BME280;40174;52.364;6.452;2022-10-15T06:00:03;100385.91;;;9.79;100.00
54262;BME280;40174;52.364;6.452;2022-10-15T06:02:37;100391.91;;;9.81;100.00
54262;BME280;40174;52.364;6.452;2022-10-15T06:05:05;100391.91;;;9.81;100.00
54262;BME280;40174;52.364;6.452;2022-10-15T06:07:32;100396.91;;;9.84;100.00
54262;BME280;40174;52.364;6.452;2022-10-15T06:10:01;100397.91;;;9.83;100.00
54262;BME280;40174;52.364;6.452;2022-10-15T06:12:32;100400.41;;;9.85;100.00
54262;BME280;40174;52.364;6.452;2022-10-15T06:14:59;100397.63;;;9.86;100.00
54262;BME280;40174;52.364;6.452;2022-10-15T06:17:25;100399.88;;;9.91;100.00
54262;BME280;40174;52.364;6.452;2022-10-15T06:19:52;100402.28;;;9.94;100.00
54262;BME280;40174;52.364;6.452;2022-10-15T06:22:20;100399.53;;;9.95;100.00
54262;BME280;40174;52.364;6.452;2022-10-15T06:24:46;100402.72;;;9.99;100.00
54262;BME280;40174;52.364;6.452;2022-10-15T06:27:13;100393.97;;;9.98;100.00
54262;BME280;40174;52.364;6.452;2022-10-15T06:29:39;100386.25;;;10.07;100.00
54262;BME280;40174;52.364;6.452;2022-10-15T06:32:08;100393.78;;;10.11;100.00
54262;BME280;40174;52.364;6.452;2022-10-15T06:34:35;100394.47;;;10.13;100.00
54262;BME280;40174;52.364;6.452;2022-10-15T06:37:02;100385.31;;;10.17;100.00
54262;BME280;40174;52.364;6.452;2022-10-15T06:39:30;100389.47;;;10.20;100.00
54262;BME280;40174;52.364;6.452;2022-10-15T06:41:57;100393.69;;;10.23;100.00
54262;BME280;40174;52.364;6.452;2022-10-15T06:44:36;100397.88;;;10.25;100.00
54262;BME280;40174;52.364;6.452;2022-10-15T06:47:03;100388.00;;;10.27;100.00
54262;BME280;40174;52.364;6.452;2022-10-15T06:49:29;100394.84;;;10.30;100.00
54262;BME280;40174;52.364;6.452;2022-10-15T06:51:57;100405.16;;;10.33;100.00
54262;BME280;40174;52.364;6.452;2022-10-15T06:54:23;100404.03;;;10.35;100.00
54262;BME280;40174;52.364;6.452;2022-10-15T06:56:51;100403.81;;;10.38;100.00
54262;BME280;40174;52.364;6.452;2022-10-15T06:59:18;100411.19;;;10.45;100.00
54262;BME280;40174;52.364;6.452;2022-10-15T07:01:46;100407.19;;;10.50;100.00
54262;BME280;40174;52.364;6.452;2022-10-15T07:04:12;100399.13;;;10.52;100.00
54262;BME280;40174;52.364;6.452;2022-10-15T07:06:39;100408.72;;;10.53;100.00
54262;BME280;40174;52.364;6.452;2022-10-15T07:09:05;100402.31;;;10.55;100.00
54262;BME280;40174;52.364;6.452;2022-10-15T07:11:32;100400.16;;;10.60;100.00
54262;BME280;40174;52.364;6.452;2022-10-15T07:14:00;100413.78;;;10.66;100.00
54262;BME280;40174;52.364;6.452;2022-10-15T07:16:27;100411.56;;;10.71;100.00
54262;BME280;40174;52.364;6.452;2022-10-15T07:18:53;100412.00;;;10.76;100.00
54262;BME280;40174;52.364;6.452;2022-10-15T07:21:20;100414.22;;;10.80;100.00
54262;BME280;40174;52.364;6.452;2022-10-15T07:23:46;100412.28;;;10.82;100.00
54262;BME280;40174;52.364;6.452;2022-10-15T07:26:13;100411.06;;;10.87;100.00
54262;BME280;40174;52.364;6.452;2022-10-15T07:28:40;100408.84;;;10.92;100.00
54262;BME280;40174;52.364;6.452;2022-10-15T07:31:08;100411.34;;;10.93;100.00
54262;BME280;40174;52.364;6.452;2022-10-15T07:33:34;100411.94;;;10.97;100.00
54262;BME280;40174;52.364;6.452;2022-10-15T07:36:02;100417.06;;;10.98;100.00
54262;BME280;40174;52.364;6.452;2022-10-15T07:38:29;100406.22;;;11.01;100.00
54262;BME280;40174;52.364;6.452;2022-10-15T07:40:57;100410.97;;;11.08;100.00
54262;BME280;40174;52.364;6.452;2022-10-15T07:43:24;100413.47;;;11.09;100.00
54262;BME280;40174;52.364;6.452;2022-10-15T07:45:51;100412.34;;;11.12;100.00
54262;BME280;40174;52.364;6.452;2022-10-15T07:48:19;100422.69;;;11.15;100.00
54262;BME280;40174;52.364;6.452;2022-10-15T07:50:46;100424.22;;;11.17;100.00
54262;BME280;40174;52.364;6.452;2022-10-15T07:53:12;100424.22;;;11.17;100.00
54262;BME280;40174;52.364;6.452;2022-10-15T07:55:39;100426.56;;;11.20;100.00
54262;BME280;40174;52.364;6.452;2022-10-15T07:58:06;100415.88;;;11.22;100.00
54262;BME280;40174;52.364;6.452;2022-10-15T08:00:33;100421.97;;;11.22;100.00
54262;BME280;40174;52.364;6.452;2022-10-15T08:02:59;100421.03;;;11.23;100.00
54262;BME280;40174;52.364;6.452;2022-10-15T08:05:27;100420.88;;;11.25;100.00
54262;BME280;40174;52.364;6.452;2022-10-15T08:07:54;100419.91;;;11.26;100.00
54262;BME280;40174;52.364;6.452;2022-10-15T08:10:20;100428.69;;;11.27;100.00
54262;BME280;40174;52.364;6.452;2022-10-15T08:12:47;100425.91;;;11.28;100.00
54262;BME280;40174;52.364;6.452;2022-10-15T08:15:13;100425.75;;;11.30;100.00
54262;BME280;40174;52.364;6.452;2022-10-15T08:17:40;100422.41;;;11.28;100.00
54262;BME280;40174;52.364;6.452;2022-10-15T08:20:08;100425.91;;;11.28;100.00
54262;BME280;40174;52.364;6.452;2022-10-15T08:22:36;100430.06;;;11.31;100.00
54262;BME280;40174;52.364;6.452;2022-10-15T08:25:03;100432.59;;;11.32;100.00
54262;BME280;40174;52.364;6.452;2022-10-15T08:27:30;100442.19;;;11.33;100.00
54262;BME280;40174;52.364;6.452;2022-10-15T08:29:59;100439.41;;;11.35;100.00
54262;BME280;40174;52.364;6.452;2022-10-15T08:32:26;100433.84;;;11.38;100.00
54262;BME280;40174;52.364;6.452;2022-10-15T08:34:52;100432.84;;;11.39;100.00
54262;BME280;40174;52.364;6.452;2022-10-15T08:37:19;100435.66;;;11.37;100.00
54262;BME280;40174;52.364;6.452;2022-10-15T08:39:47;100418.78;;;11.38;100.00
54262;BME280;40174;52.364;6.452;2022-10-15T08:42:17;100423.66;;;11.43;100.00
54262;BME280;40174;52.364;6.452;2022-10-15T08:44:47;100427.00;;;11.45;100.00
54262;BME280;40174;52.364;6.452;2022-10-15T08:47:24;100414.78;;;11.44;100.00
54262;BME280;40174;52.364;6.452;2022-10-15T08:49:53;100415.47;;;11.46;100.00
54262;BME280;40174;52.364;6.452;2022-10-15T08:52:24;100399.31;;;11.49;100.00
54262;BME280;40174;52.364;6.452;2022-10-15T08:54:54;100386.06;;;11.49;100.00
54262;BME280;40174;52.364;6.452;2022-10-15T08:57:34;100396.22;;;11.54;100.00
54262;BME280;40174;52.364;6.452;2022-10-15T09:00:22;100395.13;;;11.56;100.00
54262;BME280;40174;52.364;6.452;2022-10-15T09:02:57;100392.91;;;11.61;100.00
54262;BME280;40174;52.364;6.452;2022-10-15T09:05:33;100397.06;;;11.64;100.00
54262;BME280;40174;52.364;6.452;2022-10-15T09:08:09;100392.31;;;11.68;100.00
54262;BME280;40174;52.364;6.452;2022-10-15T09:10:43;100393.41;;;11.75;100.00
54262;BME280;40174;52.364;6.452;2022-10-15T09:13:19;100388.41;;;11.81;100.00
54262;BME280;40174;52.364;6.452;2022-10-15T09:15:50;100380.31;;;11.93;100.00
54262;BME280;40174;52.364;6.452;2022-10-15T09:18:21;100382.13;;;12.02;100.00
54262;BME280;40174;52.364;6.452;2022-10-15T09:20:49;100374.16;;;12.12;100.00
54262;BME280;40174;52.364;6.452;2022-10-15T09:23:18;100375.25;;;12.19;100.00
54262;BME280;40174;52.364;6.452;2022-10-15T09:25:50;100370.34;;;12.24;100.00
54262;BME280;40174;52.364;6.452;2022-10-15T09:28:20;100370.75;;;12.29;100.00
54262;BME280;40174;52.364;6.452;2022-10-15T09:30:52;100371.69;;;12.38;100.00
54262;BME280;40174;52.364;6.452;2022-10-15T09:33:29;100365.66;;;12.45;100.00
54262;BME280;40174;52.364;6.452;2022-10-15T09:36:05;100359.09;;;12.50;100.00
54262;BME280;40174;52.364;6.452;2022-10-15T09:38:41;100359.34;;;12.56;100.00
54262;BME280;40174;52.364;6.452;2022-10-15T09:41:20;100352.59;;;12.62;100.00
54262;BME280;40174;52.364;6.452;2022-10-15T09:43:52;100350.34;;;12.67;100.00
54262;BME280;40174;52.364;6.452;2022-10-15T09:46:21;100360.34;;;12.73;100.00
54262;BME280;40174;52.364;6.452;2022-10-15T09:48:52;100362.72;;;12.76;100.00
54262;BME280;40174;52.364;6.452;2022-10-15T09:51:24;100366.75;;;12.80;100.00
54262;BME280;40174;52.364;6.452;2022-10-15T09:54:00;100356.50;;;12.85;100.00
54262;BME280;40174;52.364;6.452;2022-10-15T09:56:34;100353.72;;;12.87;100.00
54262;BME280;40174;52.364;6.452;2022-10-15T09:59:02;100354.38;;;12.89;100.00
54262;BME280;40174;52.364;6.452;2022-10-15T10:01:30;100349.47;;;12.94;100.00
54262;BME280;40174;52.364;6.452;2022-10-15T10:04:10;100354.63;;;12.96;100.00
54262;BME280;40174;52.364;6.452;2022-10-15T10:06:42;100345.25;;;13.01;100.00
54262;BME280;40174;52.364;6.452;2022-10-15T10:09:15;100347.44;;;13.06;100.00
54262;BME280;40174;52.364;6.452;2022-10-15T10:11:49;100349.63;;;13.10;100.00
54262;BME280;40174;52.364;6.452;2022-10-15T10:14:26;100339.56;;;13.14;100.00
54262;BME280;40174;52.364;6.452;2022-10-15T10:17:05;100341.06;;;13.17;100.00
54262;BME280;40174;52.364;6.452;2022-10-15T10:19:32;100332.66;;;13.21;100.00
54262;BME280;40174;52.364;6.452;2022-10-15T10:22:06;100328.72;;;13.25;100.00
54262;BME280;40174;52.364;6.452;2022-10-15T10:24:37;100329.25;;;13.29;100.00
54262;BME280;40174;52.364;6.452;2022-10-15T10:27:18;100323.34;;;13.35;100.00
54262;BME280;40174;52.364;6.452;2022-10-15T10:29:48;100321.84;;;13.33;100.00
54262;BME280;40174;52.364;6.452;2022-10-15T10:32:20;100309.25;;;13.35;100.00
54262;BME280;40174;52.364;6.452;2022-10-15T10:34:48;100305.59;;;13.36;100.00
54262;BME280;40174;52.364;6.452;2022-10-15T10:37:15;100306.81;;;13.41;100.00
54262;BME280;40174;52.364;6.452;2022-10-15T10:39:41;100311.81;;;13.44;100.00
54262;BME280;40174;52.364;6.452;2022-10-15T10:42:23;100312.03;;;13.51;100.00
54262;BME280;40174;52.364;6.452;2022-10-15T10:44:51;100304.28;;;13.58;100.00
54262;BME280;40174;52.364;6.452;2022-10-15T10:47:20;100311.09;;;13.60;100.00
54262;BME280;40174;52.364;6.452;2022-10-15T10:49:50;100318.75;;;13.63;100.00
54262;BME280;40174;52.364;6.452;2022-10-15T10:52:25;100309.47;;;13.67;100.00
54262;BME280;40174;52.364;6.452;2022-10-15T10:54:57;100303.19;;;13.68;100.00
54262;BME280;40174;52.364;6.452;2022-10-15T10:57:37;100297.72;;;13.70;100.00
54262;BME280;40174;52.364;6.452;2022-10-15T11:00:06;100298.91;;;13.76;100.00
54262;BME280;40174;52.364;6.452;2022-10-15T11:02:33;100287.97;;;13.79;100.00
54262;BME280;40174;52.364;6.452;2022-10-15T11:05:05;100289.31;;;13.83;100.00
54262;BME280;40174;52.364;6.452;2022-10-15T11:07:40;100277.53;;;13.85;100.00
54262;BME280;40174;52.364;6.452;2022-10-15T11:10:17;100259.13;;;13.84;100.00
54262;BME280;40174;52.364;6.452;2022-10-15T11:13:06;100284.00;;;13.83;100.00
54262;BME280;40174;52.364;6.452;2022-10-15T11:15:44;100277.72;;;13.84;100.00
54262;BME280;40174;52.364;6.452;2022-10-15T11:18:31;100290.53;;;13.88;100.00
54262;BME280;40174;52.364;6.452;2022-10-15T11:21:09;100279.38;;;13.85;100.00
54262;BME280;40174;52.364;6.452;2022-10-15T11:24:02;100277.53;;;13.85;100.00
54262;BME280;40174;52.364;6.452;2022-10-15T11:26:47;100279.06;;;13.88;100.00
54262;BME280;40174;52.364;6.452;2022-10-15T11:29:24;100271.94;;;13.88;100.00
54262;BME280;40174;52.364;6.452;2022-10-15T11:31:58;100279.72;;;13.90;100.00
54262;BME280;40174;52.364;6.452;2022-10-15T11:34:35;100273.59;;;13.89;100.00
54262;BME280;40174;52.364;6.452;2022-10-15T11:37:19;100271.94;;;13.88;100.00
54262;BME280;40174;52.364;6.452;2022-10-15T11:40:04;100267.13;;;13.92;100.00
54262;BME280;40174;52.364;6.452;2022-10-15T11:42:41;100264.31;;;13.93;100.00
54262;BME280;40174;52.364;6.452;2022-10-15T11:45:40;100258.66;;;13.97;100.00
54262;BME280;40174;52.364;6.452;2022-10-15T11:48:14;100251.38;;;13.99;100.00
54262;BME280;40174;52.364;6.452;2022-10-15T11:50:46;100258.53;;;13.98;100.00
54262;BME280;40174;52.364;6.452;2022-10-15T11:53:27;100246.06;;;13.99;100.00
54262;BME280;40174;52.364;6.452;2022-10-15T11:56:00;100239.59;;;14.01;100.00
54262;BME280;40174;52.364;6.452;2022-10-15T11:58:32;100237.78;;;14.02;100.00
54262;BME280;40174;52.364;6.452;2022-10-15T12:01:05;100238.09;;;13.99;100.00
54262;BME280;40174;52.364;6.452;2022-10-15T12:03:37;100250.69;;;13.97;100.00
54262;BME280;40174;52.364;6.452;2022-10-15T12:06:09;100245.56;;;13.95;100.00
54262;BME280;40174;52.364;6.452;2022-10-15T12:08:40;100241.91;;;13.96;100.00
54262;BME280;40174;52.364;6.452;2022-10-15T12:11:18;100237.59;;;13.95;100.00
54262;BME280;40174;52.364;6.452;2022-10-15T12:13:50;100235.91;;;13.94;100.00
54262;BME280;40174;52.364;6.452;2022-10-15T12:16:27;100236.09;;;13.92;100.00
54262;BME280;40174;52.364;6.452;2022-10-15T12:19:02;100231.75;;;13.91;100.00
54262;BME280;40174;52.364;6.452;2022-10-15T12:21:36;100231.75;;;13.91;100.00
54262;BME280;40174;52.364;6.452;2022-10-15T12:24:04;100230.25;;;13.89;100.00
54262;BME280;40174;52.364;6.452;2022-10-15T12:26:35;100224.78;;;13.90;100.00
54262;BME280;40174;52.364;6.452;2022-10-15T12:29:04;100221.97;;;13.92;100.00
54262;BME280;40174;52.364;6.452;2022-10-15T12:31:47;100218.31;;;13.93;100.00
54262;BME280;40174;52.364;6.452;2022-10-15T12:34:27;100209.19;;;13.96;100.00
54262;BME280;40174;52.364;6.452;2022-10-15T12:37:02;100211.84;;;13.96;100.00
54262;BME280;40174;52.364;6.452;2022-10-15T12:39:29;100213.34;;;13.98;100.00
54262;BME280;40174;52.364;6.452;2022-10-15T12:41:57;100210.38;;;14.01;100.00
54262;BME280;40174;52.364;6.452;2022-10-15T12:44:26;100201.75;;;13.99;100.00
54262;BME280;40174;52.364;6.452;2022-10-15T12:46:55;100197.94;;;14.02;100.00
54262;BME280;40174;52.364;6.452;2022-10-15T12:49:45;100192.97;;;14.07;100.00
54262;BME280;40174;52.364;6.452;2022-10-15T12:55:26;100194.31;;;14.11;100.00
54262;BME280;40174;52.364;6.452;2022-10-15T12:57:59;100190.50;;;14.13;100.00
54262;BME280;40174;52.364;6.452;2022-10-15T13:00:37;100192.66;;;14.18;100.00
54262;BME280;40174;52.364;6.452;2022-10-15T13:03:16;100193.34;;;14.20;100.00
54262;BME280;40174;52.364;6.452;2022-10-15T13:05:44;100190.53;;;14.22;100.00
54262;BME280;40174;52.364;6.452;2022-10-15T13:08:14;100183.22;;;14.24;100.00
54262;BME280;40174;52.364;6.452;2022-10-15T13:10:47;100187.38;;;14.26;100.00